Time;durP1;ratioP1;P1;durP2;ratioP2;P2;SDS_P1;SDS_P2;PMS_P1;PMS_P2;Temp;Humidity;BMP_temperature;BMP_pressure;BME280_temperature;BME280_humidity;BME280_pressure;Samples;Min_cycle;Max_cycle;Signal;HPM_P1;HPM_P2
2022/02/09 00:00:11;;;;;;;17.20;4.78;;;8.90;99.90;;;;;;5068378;28;20078;-69
2022/02/09 00:03:06;;;;;;;22.30;5.68;;;8.90;99.90;;;;;;5086320;28;20051;-68
2022/02/09 00:05:44;;;;;;;12.57;5.30;;;8.90;99.90;;;;;;5067605;28;20072;-69
2022/02/09 00:08:12;;;;;;;11.70;3.72;;;8.90;99.90;;;;;;5068820;28;20055;-68
2022/02/09 00:10:40;;;;;;;18.77;6.00;;;8.90;99.90;;;;;;5051478;28;20430;-68
2022/02/09 00:26:44;;;;;;;15.98;5.53;;;9.00;99.90;;;;;;5068445;28;20068;-68
2022/02/09 00:29:37;;;;;;;17.35;5.25;;;9.00;99.90;;;;;;5068568;28;20048;-68
2022/02/09 01:56:10;;;;;;;8.27;3.38;;;9.00;99.90;;;;;;5089894;28;20123;-68
2022/02/09 01:58:36;;;;;;;11.05;4.25;;;9.00;99.90;;;;;;5069401;28;20105;-68
2022/02/09 02:01:02;;;;;;;16.05;4.82;;;9.10;99.90;;;;;;5071234;28;20051;-68
2022/02/09 02:03:28;;;;;;;18.35;5.07;;;9.00;99.90;;;;;;5054152;28;20048;-68
2022/02/09 02:05:55;;;;;;;9.98;3.55;;;9.00;99.90;;;;;;5070698;28;20048;-68
2022/02/09 02:08:23;;;;;;;17.55;4.07;;;9.10;99.90;;;;;;5070878;28;20063;-69
2022/02/09 02:16:22;;;;;;;15.77;3.67;;;9.10;99.90;;;;;;5070049;28;20052;-68
2022/02/09 02:19:02;;;;;;;13.10;4.30;;;9.10;99.90;;;;;;5070286;28;20093;-68
2022/02/09 02:30:15;;;;;;;14.85;2.70;;;9.00;99.90;;;;;;5071080;28;20401;-68
2022/02/09 03:12:42;;;;;;;13.02;3.00;;;9.00;99.90;;;;;;5055071;28;20499;-67
2022/02/09 03:17:39;;;;;;;14.82;3.47;;;9.00;99.90;;;;;;5046177;28;20302;-68
2022/02/09 03:23:15;;;;;;;10.10;3.22;;;9.00;99.90;;;;;;5028780;28;20107;-68
2022/02/09 03:25:50;;;;;;;13.43;3.30;;;9.00;99.90;;;;;;5046679;28;20517;-67
2022/02/09 03:42:22;;;;;;;11.20;2.22;;;9.00;99.90;;;;;;5046322;28;20049;-68
2022/02/09 03:47:41;;;;;;;6.50;2.53;;;9.10;99.90;;;;;;5043421;28;20087;-68
2022/02/09 03:55:59;;;;;;;11.30;2.38;;;9.00;99.90;;;;;;5043739;28;20033;-68
2022/02/09 03:58:24;;;;;;;16.80;3.22;;;8.90;99.90;;;;;;5027870;28;20135;-68
2022/02/09 04:00:50;;;;;;;10.32;3.55;;;8.90;99.90;;;;;;5043171;28;20128;-68
2022/02/09 04:03:20;;;;;;;17.70;2.50;;;8.80;99.90;;;;;;5041473;28;20087;-68
2022/02/09 04:05:48;;;;;;;8.25;2.47;;;8.70;99.90;;;;;;5039467;28;20045;-68
2022/02/09 04:08:16;;;;;;;18.05;2.75;;;8.70;99.90;;;;;;5027467;28;20483;-68
2022/02/09 04:10:50;;;;;;;13.40;3.15;;;8.70;99.90;;;;;;5043679;28;20407;-68
2022/02/09 04:13:40;;;;;;;20.55;3.35;;;8.70;99.90;;;;;;5044125;28;20502;-68
2022/02/09 04:16:18;;;;;;;14.00;3.13;;;8.60;99.90;;;;;;5067749;28;20081;-68
2022/02/09 04:51:01;;;;;;;20.65;3.72;;;8.30;99.90;;;;;;5085220;28;20094;-68
2022/02/09 04:56:10;;;;;;;17.75;3.45;;;8.30;99.90;;;;;;5067306;28;20138;-68
2022/02/09 04:58:52;;;;;;;17.05;3.42;;;8.30;99.90;;;;;;5067485;28;20054;-67
2022/02/09 05:02:29;;;;;;;11.68;3.22;;;8.30;99.90;;;;;;5052049;28;20131;-68
2022/02/09 05:04:20;;;;;;;15.63;3.20;;;8.40;99.90;;;;;;5060047;28;20048;-67
2022/02/09 05:25:46;;;;;;;17.95;3.58;;;8.60;99.90;;;;;;5071127;28;20056;-68
2022/02/09 05:28:15;;;;;;;18.20;2.97;;;8.60;99.90;;;;;;5072473;28;20075;-68
2022/02/09 05:30:51;;;;;;;14.20;3.42;;;8.60;99.90;;;;;;5070645;28;20532;-68
2022/02/09 05:33:18;;;;;;;8.57;3.40;;;8.60;99.90;;;;;;5071296;28;20625;-67
2022/02/09 05:35:43;;;;;;;12.75;3.17;;;8.50;99.90;;;;;;5071580;28;20033;-68
2022/02/09 05:38:14;;;;;;;13.43;3.10;;;8.60;99.90;;;;;;5089104;28;20040;-67
2022/02/09 05:40:41;;;;;;;6.38;2.38;;;8.60;99.90;;;;;;5071777;28;20059;-67
2022/02/09 05:43:08;;;;;;;20.67;3.72;;;8.60;99.90;;;;;;5070445;28;20079;-67
2022/02/09 05:46:48;;;;;;;9.85;2.63;;;8.60;99.90;;;;;;5071572;28;20040;-67
2022/02/09 05:50:57;;;;;;;9.90;2.90;;;8.60;99.90;;;;;;5089164;28;20456;-67
2022/02/09 05:53:27;;;;;;;14.00;2.97;;;8.70;99.90;;;;;;5071626;28;20048;-67
2022/02/09 05:56:31;;;;;;;17.88;3.58;;;8.70;99.90;;;;;;5088093;28;20549;-67
2022/02/09 06:01:34;;;;;;;17.15;3.15;;;8.60;99.90;;;;;;5070909;28;20051;-67
2022/02/09 06:04:00;;;;;;;15.77;3.45;;;8.60;99.90;;;;;;5071140;28;20047;-68
2022/02/09 06:06:26;;;;;;;14.60;3.88;;;8.60;99.90;;;;;;5089625;28;20044;-67
2022/02/09 06:08:52;;;;;;;12.50;3.22;;;8.60;99.90;;;;;;5052906;28;20046;-67
2022/02/09 06:21:48;;;;;;;10.63;2.97;;;8.60;99.90;;;;;;5069547;28;20044;-67
2022/02/09 06:24:14;;;;;;;9.65;3.50;;;8.60;99.90;;;;;;5089517;28;20040;-67
2022/02/09 06:26:40;;;;;;;7.45;2.30;;;8.60;99.90;;;;;;5069414;28;20040;-67
2022/02/09 06:29:05;;;;;;;13.25;3.65;;;8.60;99.90;;;;;;5070224;28;20420;-67
2022/02/09 06:31:34;;;;;;;10.02;3.55;;;8.50;99.90;;;;;;5088975;28;20068;-67
2022/02/09 06:34:00;;;;;;;16.08;2.80;;;8.60;99.90;;;;;;5088581;28;20849;-67
2022/02/09 06:36:26;;;;;;;12.07;3.58;;;8.60;99.90;;;;;;5070832;28;20040;-68
2022/02/09 06:38:52;;;;;;;14.20;3.88;;;8.60;99.90;;;;;;5087772;28;20055;-67
2022/02/09 06:41:18;;;;;;;17.45;3.83;;;8.60;99.90;;;;;;5089235;28;20040;-67
2022/02/09 06:43:44;;;;;;;15.38;3.90;;;8.60;99.90;;;;;;5069057;28;20474;-68
2022/02/09 06:46:10;;;;;;;13.60;3.35;;;8.60;99.90;;;;;;5087502;28;20040;-68
2022/02/09 06:48:36;;;;;;;16.60;4.13;;;8.50;99.90;;;;;;5069260;28;20200;-68
2022/02/09 06:51:10;;;;;;;13.95;3.78;;;8.50;99.90;;;;;;5080072;28;20553;-67
2022/02/09 06:54:02;;;;;;;11.75;2.88;;;8.60;99.90;;;;;;5070591;28;20664;-67
2022/02/09 06:57:34;;;;;;;7.35;2.42;;;8.50;99.90;;;;;;5069505;28;20501;-68
2022/02/09 06:59:30;;;;;;;14.07;3.08;;;8.60;99.90;;;;;;5079230;28;20115;-68
2022/02/09 07:02:04;;;;;;;14.85;3.90;;;8.60;99.90;;;;;;5068785;28;20070;-67
2022/02/09 07:04:36;;;;;;;10.05;2.90;;;8.60;99.90;;;;;;5049182;28;20044;-67
2022/02/09 07:07:02;;;;;;;13.88;3.03;;;8.60;99.90;;;;;;5047897;28;20091;-67
2022/02/09 07:09:28;;;;;;;18.30;3.35;;;8.60;99.90;;;;;;5058308;28;20422;-67
2022/02/09 07:11:55;;;;;;;15.13;2.80;;;8.60;99.90;;;;;;5086855;28;20044;-68
2022/02/09 07:14:27;;;;;;;9.82;1.67;;;8.60;99.90;;;;;;5087167;28;20040;-67
2022/02/09 07:16:54;;;;;;;15.05;3.10;;;8.60;99.90;;;;;;5070082;28;20047;-67
2022/02/09 07:19:20;;;;;;;18.40;2.72;;;8.60;99.90;;;;;;5088216;28;20372;-67
2022/02/09 07:21:46;;;;;;;15.38;2.53;;;8.60;99.90;;;;;;5069294;28;20051;-67
2022/02/09 07:24:18;;;;;;;5.93;2.65;;;8.60;99.90;;;;;;5088006;28;20055;-67
2022/02/09 07:29:12;;;;;;;17.88;3.20;;;8.60;99.90;;;;;;5087913;28;20051;-67
2022/02/09 07:31:38;;;;;;;14.88;3.15;;;8.60;99.90;;;;;;5067652;28;20115;-67
2022/02/09 07:34:04;;;;;;;10.35;1.88;;;8.60;99.90;;;;;;5086536;28;20170;-67
2022/02/09 07:36:35;;;;;;;10.45;2.70;;;8.60;99.90;;;;;;5068471;28;20056;-67
2022/02/09 07:39:10;;;;;;;17.60;3.00;;;8.70;99.90;;;;;;5049076;28;20438;-67
2022/02/09 07:41:40;;;;;;;10.68;2.35;;;8.70;99.90;;;;;;5064348;28;20501;-67
2022/02/09 07:49:36;;;;;;;12.88;2.92;;;8.70;99.90;;;;;;5053405;28;20048;-67
2022/02/09 07:52:12;;;;;;;11.13;2.67;;;8.70;99.90;;;;;;5067711;28;20568;-67
2022/02/09 07:54:37;;;;;;;7.07;1.92;;;8.70;99.90;;;;;;5067703;28;20109;-67
2022/02/09 07:57:03;;;;;;;16.98;2.47;;;8.80;99.90;;;;;;5067482;28;20051;-67
2022/02/09 07:59:29;;;;;;;7.38;2.10;;;8.70;99.90;;;;;;5068563;28;20111;-67
2022/02/09 08:01:55;;;;;;;8.80;2.30;;;8.80;99.90;;;;;;5066741;28;20067;-67
2022/02/09 08:04:21;;;;;;;7.18;1.55;;;8.80;99.90;;;;;;5069957;28;20517;-67
2022/02/09 08:06:48;;;;;;;10.43;2.55;;;8.80;99.90;;;;;;5073905;28;20118;-67
2022/02/09 08:09:26;;;;;;;9.18;1.90;;;8.90;99.90;;;;;;5048684;28;20059;-68
2022/02/09 08:12:28;;;;;;;16.40;2.03;;;8.90;99.90;;;;;;5079689;28;20059;-66
2022/02/09 08:28:21;;;;;;;17.23;2.17;;;9.00;99.90;;;;;;5082659;28;20563;-67
2022/02/09 08:33:20;;;;;;;15.65;2.28;;;9.00;99.90;;;;;;5080706;28;20540;-67
2022/02/09 08:35:48;;;;;;;10.15;2.13;;;9.00;99.90;;;;;;5044218;28;20039;-67
2022/02/09 08:38:14;;;;;;;7.40;1.35;;;9.00;99.90;;;;;;5054673;28;20130;-67
2022/02/09 08:40:41;;;;;;;13.70;3.03;;;9.00;99.90;;;;;;5066537;28;20036;-67
2022/02/09 08:43:09;;;;;;;12.05;2.42;;;9.00;99.90;;;;;;5086488;28;20040;-67
2022/02/09 08:45:35;;;;;;;10.73;1.48;;;9.00;99.90;;;;;;5066631;28;20098;-67
2022/02/09 08:48:01;;;;;;;15.23;2.47;;;8.90;99.90;;;;;;5086043;28;20163;-67
2022/02/09 08:50:27;;;;;;;15.32;2.35;;;8.90;99.90;;;;;;5051129;28;20119;-66
2022/02/09 08:52:53;;;;;;;12.52;2.35;;;8.90;99.90;;;;;;5049296;28;20110;-67
2022/02/09 08:55:19;;;;;;;13.48;2.58;;;8.90;99.90;;;;;;5068776;28;20418;-67
2022/02/09 08:57:46;;;;;;;7.28;1.30;;;8.90;99.90;;;;;;5085224;28;20071;-67
2022/02/09 09:00:20;;;;;;;14.43;2.38;;;8.80;99.90;;;;;;5085967;28;20047;-67
2022/02/09 09:02:51;;;;;;;8.20;2.00;;;8.80;99.90;;;;;;5066547;28;20478;-67
2022/02/09 09:05:24;;;;;;;8.63;1.20;;;8.70;99.90;;;;;;5067887;28;20376;-67
2022/02/09 09:08:06;;;;;;;14.23;2.45;;;8.70;99.90;;;;;;5086693;28;20402;-67
2022/02/09 09:10:40;;;;;;;7.40;1.27;;;8.70;99.90;;;;;;5084778;28;20119;-67
2022/02/09 10:02:59;;;;;;;13.77;1.85;;;8.70;99.90;;;;;;5069961;28;20048;-66
2022/02/09 10:14:10;;;;;;;15.63;1.88;;;8.70;99.90;;;;;;5071056;28;20052;-67
2022/02/09 10:32:01;;;;;;;5.57;1.75;;;8.80;99.90;;;;;;5061461;28;20395;-67
2022/02/09 10:34:27;;;;;;;2.63;0.70;;;8.80;99.90;;;;;;5054518;28;20048;-67
2022/02/09 10:37:00;;;;;;;5.40;1.15;;;8.80;99.90;;;;;;5087391;28;20113;-67
2022/02/09 10:42:44;;;;;;;9.50;1.73;;;8.90;99.90;;;;;;5035077;28;20083;-67
2022/02/09 10:45:48;;;;;;;11.63;2.10;;;8.90;99.90;;;;;;5050882;28;20137;-67
2022/02/09 10:48:35;;;;;;;6.53;1.35;;;9.00;99.90;;;;;;5088644;28;20071;-67
2022/02/09 10:51:45;;;;;;;8.75;1.63;;;9.00;99.90;;;;;;5069617;28;20087;-67
2022/02/09 10:54:32;;;;;;;2.92;0.88;;;9.10;99.90;;;;;;5068131;28;20054;-67
2022/02/09 10:57:00;;;;;;;4.47;0.77;;;9.00;99.90;;;;;;5088383;28;20475;-67
2022/02/09 10:59:28;;;;;;;4.25;1.48;;;9.00;99.90;;;;;;5068354;28;20490;-67
2022/02/09 11:01:56;;;;;;;9.10;1.35;;;9.10;99.90;;;;;;5070812;28;20059;-67
2022/02/09 11:04:22;;;;;;;5.82;1.38;;;9.10;99.90;;;;;;5087360;28;20478;-67
2022/02/09 11:06:49;;;;;;;6.28;1.27;;;9.10;99.90;;;;;;5067647;28;20048;-67
2022/02/09 11:09:20;;;;;;;2.72;1.20;;;9.10;99.90;;;;;;5060853;28;20086;-67
2022/02/09 11:11:47;;;;;;;7.03;1.52;;;9.10;99.90;;;;;;5059541;28;20127;-67
2022/02/09 11:14:16;;;;;;;10.48;1.85;;;9.10;99.90;;;;;;5069687;28;20047;-67
2022/02/09 11:16:46;;;;;;;2.30;0.65;;;9.10;99.90;;;;;;5036561;28;20135;-67
2022/02/09 11:19:15;;;;;;;;;;;9.10;99.90;;;;;;5066395;28;20058;-67
2022/02/09 11:21:43;;;;;;;7.88;1.10;;;9.20;99.90;;;;;;5087576;28;19934;-67
2022/02/09 11:24:18;;;;;;;6.30;1.60;;;9.20;99.90;;;;;;5086272;28;20537;-67
2022/02/09 11:27:09;;;;;;;2.40;0.98;;;9.20;99.90;;;;;;5051764;28;20492;-67
2022/02/09 11:34:50;;;;;;;4.07;1.02;;;9.20;99.90;;;;;;5086744;28;20047;-67
2022/02/09 11:37:26;;;;;;;2.40;0.93;;;9.20;99.90;;;;;;5068247;28;20044;-67
2022/02/09 11:39:56;;;;;;;2.10;0.73;;;9.30;99.90;;;;;;5086627;28;20105;-67
2022/02/09 11:42:53;;;;;;;11.40;1.77;;;9.20;99.90;;;;;;5085957;28;20043;-67
2022/02/09 11:46:04;;;;;;;8.45;1.17;;;9.30;99.90;;;;;;5069300;28;20498;-67
2022/02/09 12:11:30;;;;;;;5.78;1.08;;;9.20;99.90;;;;;;5070506;28;20090;-67
2022/02/09 12:19:29;;;;;;;13.57;1.77;;;9.10;99.90;;;;;;5065900;28;20052;-67
2022/02/09 12:22:14;;;;;;;1.92;0.50;;;9.10;99.90;;;;;;5055708;28;20098;-67
2022/02/09 12:24:42;;;;;;;8.48;1.10;;;9.10;99.90;;;;;;5065680;28;20044;-67
2022/02/09 12:27:12;;;;;;;10.48;1.42;;;9.00;99.90;;;;;;5065902;28;20044;-67
2022/02/09 12:29:47;;;;;;;11.05;1.77;;;9.00;99.90;;;;;;5080528;28;20437;-67
2022/02/09 12:32:16;;;;;;;5.35;1.42;;;9.10;99.90;;;;;;5066471;28;20097;-67
2022/02/09 12:35:06;;;;;;;4.50;1.42;;;9.10;99.90;;;;;;5083261;28;20075;-67
2022/02/09 12:37:41;;;;;;;6.60;0.90;;;9.10;99.90;;;;;;5076705;28;20524;-67
2022/02/09 12:40:22;;;;;;;5.28;1.17;;;9.10;99.90;;;;;;5066426;28;20275;-67
2022/02/09 12:42:52;;;;;;;6.13;1.80;;;9.10;99.90;;;;;;5058436;28;20047;-67
2022/02/09 12:45:21;;;;;;;7.63;1.52;;;9.10;99.90;;;;;;5081061;28;20032;-66
2022/02/09 12:47:53;;;;;;;1.35;0.57;;;9.10;99.90;;;;;;5063105;28;20087;-66
2022/02/09 12:50:24;;;;;;;6.97;1.25;;;9.10;99.90;;;;;;5074178;28;20051;-66
2022/02/09 12:52:51;;;;;;;4.00;0.57;;;9.10;99.90;;;;;;5060755;28;20048;-66
2022/02/09 12:55:23;;;;;;;8.27;1.58;;;9.10;99.90;;;;;;5084309;28;20067;-67
2022/02/09 12:57:53;;;;;;;5.32;1.45;;;9.10;99.90;;;;;;5087023;28;20047;-67
2022/02/09 13:00:40;;;;;;;;;;;9.10;99.90;;;;;;5085403;28;20131;-66
2022/02/09 13:03:13;;;;;;;3.72;1.38;;;9.10;99.90;;;;;;5085167;28;19924;-67
2022/02/09 13:05:50;;;;;;;6.40;1.13;;;9.00;99.90;;;;;;5077990;28;20040;-67
2022/02/09 13:08:29;;;;;;;7.63;1.63;;;9.00;99.90;;;;;;5062568;28;20090;-67
2022/02/09 13:11:26;;;;;;;9.40;1.42;;;9.00;99.90;;;;;;5056475;28;20094;-67
2022/02/09 13:13:58;;;;;;;4.88;1.23;;;9.00;99.90;;;;;;5050442;28;20051;-67
2022/02/09 13:16:51;;;;;;;3.08;0.60;;;9.00;99.90;;;;;;5062229;28;20052;-67
2022/02/09 13:53:26;;;;;;;4.25;1.25;;;9.00;99.90;;;;;;5083438;28;20048;-67
2022/02/09 14:13:04;;;;;;;10.38;1.55;;;8.90;99.90;;;;;;5064729;28;20103;-67
2022/02/09 14:32:23;;;;;;;3.70;1.08;;;8.80;99.90;;;;;;5067910;28;20086;-67
2022/02/09 14:53:45;;;;;;;9.95;3.13;;;8.90;99.90;;;;;;5069088;28;20050;-67
2022/02/09 14:56:23;;;;;;;12.27;3.65;;;8.90;99.90;;;;;;5069351;28;20048;-67
2022/02/09 14:58:57;;;;;;;10.57;2.60;;;8.90;99.90;;;;;;5054088;28;20063;-67
2022/02/09 15:01:35;;;;;;;16.23;4.85;;;9.00;99.90;;;;;;5076419;28;20508;-67
2022/02/09 15:12:17;;;;;;;20.92;4.07;;;9.00;99.90;;;;;;5087939;28;20063;-68
2022/02/09 15:22:53;;;;;;;21.17;5.00;;;9.00;99.90;;;;;;5067663;28;20524;-67
2022/02/09 15:25:22;;;;;;;14.57;4.15;;;9.00;99.90;;;;;;5069463;28;20068;-67
2022/02/09 15:27:53;;;;;;;21.58;4.18;;;9.00;99.90;;;;;;5085543;28;20036;-67
2022/02/09 15:30:19;;;;;;;16.33;3.47;;;9.00;99.90;;;;;;5069034;28;20056;-67
2022/02/09 15:32:50;;;;;;;4.80;1.92;;;8.90;99.90;;;;;;5082479;28;20040;-67
2022/02/09 15:38:04;;;;;;;11.98;3.33;;;8.90;99.90;;;;;;5085305;28;20085;-67
2022/02/09 15:40:34;;;;;;;14.88;3.70;;;8.90;99.90;;;;;;5075394;28;20507;-67
2022/02/09 15:43:40;;;;;;;18.00;4.72;;;8.80;99.90;;;;;;5076967;28;20047;-67
2022/02/09 16:48:26;;;;;;;4.75;1.50;;;8.50;99.90;;;;;;5034195;28;20040;-67
2022/02/09 16:50:52;;;;;;;16.30;1.92;;;8.50;99.90;;;;;;5065487;28;20082;-68
2022/02/09 16:56:37;;;;;;;22.65;3.83;;;8.50;99.90;;;;;;5083443;28;20096;-68
2022/02/09 17:20:45;;;;;;;15.10;2.25;;;8.30;99.90;;;;;;5052499;28;20567;-67
2022/02/09 17:23:11;;;;;;;10.18;2.00;;;8.20;99.90;;;;;;5055313;28;20040;-68
2022/02/09 17:25:37;;;;;;;15.07;2.38;;;8.20;99.90;;;;;;5067863;28;20040;-67
2022/02/09 17:28:03;;;;;;;20.20;2.53;;;8.20;99.90;;;;;;5084438;28;20048;-68
2022/02/09 17:35:36;;;;;;;17.60;2.03;;;8.10;99.90;;;;;;5068178;28;20055;-67
2022/02/09 17:38:40;;;;;;;18.73;2.70;;;8.10;99.90;;;;;;5084903;28;20048;-67
2022/02/09 17:57:18;;;;;;;5.47;1.50;;;8.00;99.90;;;;;;5061769;28;20052;-68
2022/02/09 17:59:56;;;;;;;10.40;2.08;;;8.00;99.90;;;;;;5067206;28;20119;-67
2022/02/09 18:02:22;;;;;;;12.68;2.22;;;8.00;99.90;;;;;;5084278;28;20062;-68
2022/02/09 18:04:48;;;;;;;14.13;2.40;;;8.00;99.90;;;;;;5049902;28;20375;-67
2022/02/09 18:07:19;;;;;;;13.23;2.53;;;7.90;99.90;;;;;;5048955;28;20168;-68
2022/02/09 18:09:49;;;;;;;;;;;7.90;99.90;;;;;;5086702;28;20047;-67
2022/02/09 18:31:11;;;;;;;10.52;2.63;;;7.80;99.90;;;;;;5060435;28;20056;-67
2022/02/09 18:34:07;;;;;;;12.50;2.72;;;7.80;99.90;;;;;;5078454;28;20044;-68
2022/02/09 18:58:29;;;;;;;15.45;3.15;;;7.70;99.90;;;;;;5057069;28;20047;-67
2022/02/09 19:03:34;;;;;;;17.77;3.97;;;7.60;99.90;;;;;;5085887;28;20048;-68
2022/02/09 19:06:11;;;;;;;21.27;4.07;;;7.60;99.90;;;;;;5069908;28;20047;-68
2022/02/09 19:14:09;;;;;;;15.20;3.08;;;7.50;99.90;;;;;;5071216;28;20054;-67
2022/02/09 19:14:27;;;;;;;18.38;3.88;;;7.40;99.90;;;;;;5066280;28;20044;-68
2022/02/09 19:17:01;;;;;;;23.50;3.58;;;7.40;99.90;;;;;;5047124;28;20053;-68
2022/02/09 19:51:07;;;;;;;15.35;3.90;;;7.20;99.90;;;;;;5048971;28;20430;-67
2022/02/09 19:57:05;;;;;;;18.13;4.43;;;7.10;99.90;;;;;;5030506;23;20317;-67
2022/02/09 20:03:40;;;;;;;17.75;3.88;;;7.20;99.90;;;;;;5047093;23;20059;-67
2022/02/09 20:06:09;;;;;;;20.77;5.30;;;7.20;99.90;;;;;;5028055;28;20061;-67
2022/02/09 20:08:56;;;;;;;17.73;4.30;;;7.10;99.90;;;;;;5030671;28;20060;-66
2022/02/09 20:11:28;;;;;;;27.25;4.97;;;7.20;99.90;;;;;;5016192;28;20048;-68
2022/02/09 20:14:12;;;;;;;24.92;5.07;;;7.20;99.90;;;;;;5051628;28;20109;-67
2022/02/09 20:16:42;;;;;;;28.10;5.82;;;7.20;99.90;;;;;;5038939;28;20086;-67
2022/02/09 20:19:32;;;;;;;20.73;6.07;;;7.30;99.90;;;;;;5055576;28;20052;-67
2022/02/09 20:22:03;;;;;;;21.85;5.68;;;7.30;99.90;;;;;;5012102;28;20041;-67
2022/02/09 20:25:03;;;;;;;20.95;6.60;;;7.30;99.90;;;;;;5051035;28;20112;-67
2022/02/09 20:28:07;;;;;;;18.33;6.50;;;7.40;99.90;;;;;;5028695;28;20044;-67
2022/02/09 20:30:49;;;;;;;20.63;6.25;;;7.40;99.90;;;;;;5041427;28;20517;-67
2022/02/09 20:33:40;;;;;;;21.60;6.95;;;7.40;99.90;;;;;;5042073;28;20513;-67
2022/02/09 20:36:37;;;;;;;21.40;7.30;;;7.40;99.90;;;;;;5036667;28;20102;-67
2022/02/09 20:39:36;;;;;;;20.70;7.30;;;7.40;99.90;;;;;;5057759;28;20045;-67
2022/02/09 20:42:18;;;;;;;24.08;7.53;;;7.50;99.90;;;;;;5035646;28;20053;-67
2022/02/09 20:45:21;;;;;;;25.98;7.10;;;7.50;99.90;;;;;;5041035;28;20079;-67
2022/02/09 20:48:14;;;;;;;27.27;7.40;;;7.50;99.90;;;;;;5053083;28;20044;-67
2022/02/09 20:55:18;;;;;;;25.40;6.53;;;7.50;99.90;;;;;;5050214;28;20043;-67
2022/02/09 20:57:49;;;;;;;20.08;6.30;;;7.60;99.90;;;;;;5053819;22;20056;-67
2022/02/09 21:03:46;;;;;;;16.67;7.15;;;7.60;99.90;;;;;;5045865;28;20045;-67
2022/02/09 21:09:08;;;;;;;15.20;7.47;;;7.60;99.90;;;;;;5001869;28;20582;-67
2022/02/09 21:22:00;;;;;;;20.50;7.47;;;7.60;99.90;;;;;;5060875;28;20052;-67
2022/02/09 21:31:15;;;;;;;22.98;7.50;;;7.60;99.90;;;;;;5041403;28;20152;-67
2022/02/09 21:32:52;;;;;;;29.77;8.02;;;7.50;99.90;;;;;;5030035;28;20052;-67
2022/02/09 21:54:55;;;;;;;18.98;6.70;;;7.40;99.90;;;;;;4989717;28;20061;-67
2022/02/09 22:16:49;;;;;;;26.15;9.35;;;7.50;99.90;;;;;;5051982;28;20079;-67
2022/02/09 22:47:04;;;;;;;39.70;15.68;;;7.50;99.90;;;;;;5047470;28;20040;-67
2022/02/09 22:56:37;;;;;;;30.77;13.65;;;7.60;99.90;;;;;;5055153;28;20033;-67
2022/02/09 22:59:08;;;;;;;31.70;14.50;;;7.50;99.90;;;;;;5032471;28;20037;-66
2022/02/09 23:06:37;;;;;;;27.10;11.15;;;7.50;99.90;;;;;;5056044;28;20584;-67
2022/02/09 23:11:58;;;;;;;14.30;6.35;;;7.40;99.90;;;;;;5056729;28;20041;-66
2022/02/09 23:57:50;;;;;;;12.63;4.20;;;7.10;99.90;;;;;;5066722;28;20490;-67
